Time;durP1;ratioP1;P1;durP2;ratioP2;P2;SDS_P1;SDS_P2;PMS_P1;PMS_P2;Temp;Humidity;BMP_temperature;BMP_pressure;BME280_temperature;BME280_humidity;BME280_pressure;Samples;Min_cycle;Max_cycle;Signal;HPM_P1;HPM_P2
2022/08/10 00:02:16;;;;;;;;;6.25;6.25;;;;;26.23;35.07;101476.88;5016404;28;45606;-85
2022/08/10 00:04:42;;;;;;;;;7.50;7.00;;;;;26.21;35.51;101478.03;5016041;28;46645;-85
2022/08/10 00:07:08;;;;;;;;;6.25;5.75;;;;;26.18;35.31;101478.44;4997849;28;47884;-84
2022/08/10 00:09:33;;;;;;;;;7.25;7.00;;;;;26.07;35.44;101462.81;5019206;28;45536;-86
2022/08/10 00:11:59;;;;;;;;;7.25;7.25;;;;;26.08;34.95;101470.66;5017290;28;45542;-86
2022/08/10 00:14:24;;;;;;;;;6.75;6.00;;;;;26.07;35.46;101471.69;5016626;28;45591;-87
2022/08/10 00:16:49;;;;;;;;;7.25;7.00;;;;;26.05;35.77;101456.78;4997123;28;47264;-84
2022/08/10 00:19:15;;;;;;;;;5.50;5.50;;;;;25.94;35.67;101458.09;5015553;28;45650;-82
2022/08/10 00:21:40;;;;;;;;;7.00;7.00;;;;;25.94;35.91;101458.09;4997172;28;45896;-88
2022/08/10 00:24:06;;;;;;;;;8.50;8.00;;;;;25.94;35.71;101470.69;5014655;28;45630;-85
2022/08/10 00:26:31;;;;;;;;;7.25;6.75;;;;;25.91;35.93;101463.88;5014836;28;46437;-83
2022/08/10 00:28:57;;;;;;;;;6.00;6.00;;;;;25.86;35.80;101466.25;5015046;28;45686;-85
2022/08/10 00:31:22;;;;;;;;;8.50;6.50;;;;;25.78;35.91;101471.75;5015315;28;45986;-82
2022/08/10 00:37:09;;;;;;;;;5.75;5.50;;;;;25.70;36.28;101461.94;5014866;28;45709;-83
2022/08/10 00:39:34;;;;;;;;;6.50;6.50;;;;;25.65;36.91;101482.28;5014503;28;45687;-82
2022/08/10 00:42:00;;;;;;;;;6.25;6.25;;;;;25.55;36.67;101463.75;5015714;28;45676;-84
2022/08/10 00:44:25;;;;;;;;;6.25;6.25;;;;;25.51;36.98;101462.47;5016398;28;46459;-84
2022/08/10 00:46:51;;;;;;;;;4.75;4.50;;;;;25.45;36.39;101464.03;4997223;28;47199;-82
2022/08/10 00:52:38;;;;;;;;;6.00;6.00;;;;;25.43;36.72;101471.44;5017904;28;45693;-84
2022/08/10 00:55:05;;;;;;;;;5.25;5.25;;;;;25.37;37.09;101458.75;4998665;28;47518;-81
2022/08/10 00:57:32;;;;;;;;;6.00;5.50;;;;;25.37;37.10;101455.28;5015289;28;46132;-84
2022/08/10 00:59:58;;;;;;;;;5.00;5.00;;;;;25.34;36.84;101461.81;5015521;28;45662;-81
2022/08/10 01:02:23;;;;;;;;;5.75;5.00;;;;;25.27;37.00;101452.00;5015405;28;45708;-85
2022/08/10 01:04:49;;;;;;;;;6.00;5.00;;;;;25.26;37.04;101448.50;5016991;28;45824;-81
2022/08/10 01:07:29;;;;;;;;;6.00;6.00;;;;;25.25;36.98;101456.72;4998245;28;47228;-83
2022/08/10 01:10:16;;;;;;;;;5.75;5.00;;;;;25.25;36.96;101462.94;5014964;28;45782;-84
2022/08/10 01:13:05;;;;;;;;;5.75;5.75;;;;;25.19;37.22;101450.25;5015187;28;45571;-87
2022/08/10 01:15:42;;;;;;;;;6.25;5.75;;;;;25.19;37.34;101460.16;5014656;28;45574;-84
2022/08/10 01:18:31;;;;;;;;;7.00;5.00;;;;;25.15;37.63;101450.81;5014361;28;45886;-84
2022/08/10 01:21:15;;;;;;;;;6.50;6.25;;;;;25.14;37.17;101455.34;5014180;28;45682;-83
2022/08/10 01:23:54;;;;;;;;;6.75;5.50;;;;;25.11;37.47;101454.84;5014309;28;45744;-84
2022/08/10 01:26:45;;;;;;;;;7.00;6.25;;;;;25.08;37.61;101456.06;5014125;28;46699;-83
2022/08/10 01:29:29;;;;;;;;;6.50;6.00;;;;;25.06;37.42;101452.72;5017170;28;45536;-84
2022/08/10 01:32:01;;;;;;;;;5.75;5.00;;;;;25.03;37.45;101445.88;5017491;28;45650;-84
2022/08/10 01:34:36;;;;;;;;;5.00;5.00;;;;;24.99;37.43;101443.75;4999036;28;45584;-84
2022/08/10 01:37:06;;;;;;;;;7.00;7.00;;;;;24.99;37.27;101436.53;5017107;28;45718;-84
2022/08/10 01:39:40;;;;;;;;;5.50;5.50;;;;;24.99;37.70;101446.44;5017251;28;46526;-84
2022/08/10 01:42:10;;;;;;;;;7.50;6.00;;;;;24.97;37.67;101437.72;5017346;28;45691;-83
2022/08/10 01:44:40;;;;;;;;;6.50;6.25;;;;;24.93;38.09;101449.84;5017117;28;45544;-82
2022/08/10 01:50:02;;;;;;;;;6.00;6.00;;;;;24.85;38.21;101450.72;5016742;28;45807;-83
2022/08/10 01:52:29;;;;;;;;;6.50;6.25;;;;;24.79;37.85;101447.91;5016974;28;45765;-84
2022/08/10 01:54:57;;;;;;;;;7.00;6.75;;;;;24.81;37.75;101449.41;5017306;28;45785;-84
2022/08/10 01:57:26;;;;;;;;;6.00;5.00;;;;;24.72;38.37;101434.44;5000348;28;48049;-83
2022/08/10 01:59:55;;;;;;;;;6.00;6.00;;;;;24.76;37.83;101445.59;5019412;28;46485;-83
2022/08/10 02:02:22;;;;;;;;;6.00;6.00;;;;;24.73;38.05;101435.22;5024751;28;45550;-83
2022/08/10 02:04:51;;;;;;;;;6.00;6.00;;;;;24.74;38.16;101436.91;5023560;28;45639;-82
2022/08/10 02:07:21;;;;;;;;;6.75;6.25;;;;;24.65;38.38;101430.78;5002186;28;46581;-81
2022/08/10 02:09:51;;;;;;;;;6.00;6.00;;;;;24.68;38.50;101441.13;5017115;28;45445;-83
2022/08/10 02:12:20;;;;;;;;;6.00;5.00;;;;;24.62;37.90;101434.66;5016624;28;45671;-83
2022/08/10 02:14:50;;;;;;;;;6.25;6.00;;;;;24.60;38.37;101433.19;4999116;28;45900;-83
2022/08/10 02:17:21;;;;;;;;;5.25;5.00;;;;;24.59;38.45;101436.88;5016865;28;46586;-83
2022/08/10 02:19:50;;;;;;;;;8.75;5.00;;;;;24.47;39.00;101430.25;4998282;28;47884;-81
2022/08/10 02:22:18;;;;;;;;;5.00;5.00;;;;;24.54;38.64;101445.47;5016066;28;45665;-83
2022/08/10 02:24:44;;;;;;;;;6.50;6.00;;;;;24.48;38.29;101440.81;5016630;28;45532;-83
2022/08/10 02:27:12;;;;;;;;;6.00;6.00;;;;;24.48;38.63;101440.81;5016785;28;46821;-84
2022/08/10 02:29:40;;;;;;;;;6.25;5.25;;;;;24.46;38.94;101436.63;5016590;28;46313;-84
2022/08/10 02:32:08;;;;;;;;;5.50;5.25;;;;;24.41;38.62;101439.00;4998406;28;45658;-83
2022/08/10 02:34:38;;;;;;;;;6.00;5.50;;;;;24.38;38.76;101436.69;4998994;28;45970;-83
2022/08/10 02:37:05;;;;;;;;;6.00;5.50;;;;;24.35;38.52;101439.72;5017352;28;45615;-84
2022/08/10 02:39:32;;;;;;;;;5.25;5.25;;;;;24.33;38.73;101439.09;5017746;28;45897;-83
2022/08/10 02:42:07;;;;;;;;;6.25;5.75;;;;;24.28;38.76;101433.44;5018520;28;45504;-81
2022/08/10 02:44:42;;;;;;;;;6.50;5.25;;;;;24.34;38.91;101448.78;5018755;28;45484;-85
2022/08/10 02:47:14;;;;;;;;;7.25;5.50;;;;;24.28;39.34;101441.47;5019460;28;45626;-84
2022/08/10 02:49:50;;;;;;;;;6.00;5.50;;;;;24.24;38.85;101439.13;5018890;28;45710;-84
2022/08/10 02:52:29;;;;;;;;;7.00;6.25;;;;;24.27;39.41;101443.31;5018263;28;45567;-84
2022/08/10 02:55:25;;;;;;;;;5.00;5.00;;;;;24.25;39.10;101456.88;5018288;28;45748;-84
2022/08/10 02:57:54;;;;;;;;;5.25;5.25;;;;;24.19;39.31;101438.00;5015929;28;46613;-83
2022/08/10 03:00:23;;;;;;;;;7.00;6.00;;;;;24.11;39.47;101432.66;5016143;28;45933;-82
2022/08/10 03:02:51;;;;;;;;;4.75;4.00;;;;;24.08;39.27;101441.88;5015994;28;45480;-84
2022/08/10 03:05:20;;;;;;;;;6.00;6.00;;;;;24.13;39.51;101452.09;5016505;28;45777;-85
2022/08/10 03:07:51;;;;;;;;;7.00;6.00;;;;;24.08;39.76;101443.72;5016485;28;46775;-85
2022/08/10 03:10:48;;;;;;;;;4.00;4.00;;;;;24.09;39.82;101458.78;4998040;28;46999;-84
2022/08/10 03:13:14;;;;;;;;;5.00;5.00;;;;;23.97;39.41;101441.47;4916308;28;45789;-83
2022/08/10 03:15:40;;;;;;;;;5.25;5.25;;;;;24.04;39.59;101455.78;4916765;28;45626;-85
2022/08/10 03:21:29;;;;;;;;;5.75;5.75;;;;;23.99;39.76;101444.78;4916005;28;46067;-84
2022/08/10 03:23:57;;;;;;;;;6.00;6.00;;;;;23.95;39.76;101443.47;4917738;28;45855;-87
2022/08/10 03:26:24;;;;;;;;;5.75;4.00;;;;;23.93;40.26;101440.97;4917588;28;45567;-85
2022/08/10 03:28:52;;;;;;;;;5.25;5.25;;;;;23.92;40.22;101443.81;4916628;28;45645;-84
2022/08/10 03:31:17;;;;;;;;;5.75;5.50;;;;;23.88;40.02;101435.31;4916702;28;45627;-86
2022/08/10 03:37:04;;;;;;;;;5.00;5.00;;;;;23.76;40.14;101434.00;4916475;28;45676;-86
2022/08/10 03:39:30;;;;;;;;;7.00;5.00;;;;;23.72;40.29;101438.91;4916204;28;45605;-85
2022/08/10 03:41:59;;;;;;;;;5.00;5.00;;;;;23.72;40.22;101444.25;4916562;28;46083;-86
2022/08/10 03:44:28;;;;;;;;;7.00;7.00;;;;;23.70;40.52;101442.75;4916521;28;45827;-82
2022/08/10 03:46:57;;;;;;;;;4.50;4.00;;;;;23.67;40.63;101438.59;4916258;28;45508;-85
2022/08/10 03:52:44;;;;;;;;;5.75;5.00;;;;;23.62;40.49;101443.63;5015967;28;45716;-81
2022/08/10 03:55:10;;;;;;;;;5.25;5.25;;;;;23.56;40.90;101441.63;5016200;28;45552;-85
2022/08/10 03:57:37;;;;;;;;;6.75;6.25;;;;;23.52;41.21;101434.13;5017048;28;45632;-85
2022/08/10 04:00:04;;;;;;;;;7.00;6.00;;;;;23.48;40.65;101433.66;5015982;28;46979;-83
2022/08/10 04:02:30;;;;;;;;;5.00;5.00;;;;;23.46;41.04;101438.34;5014971;28;46417;-85
2022/08/10 04:08:17;;;;;;;;;5.75;5.00;;;;;23.48;40.83;101452.38;5021473;28;45485;-84
2022/08/10 04:10:43;;;;;;;;;5.75;5.75;;;;;23.44;41.28;101437.63;5025623;28;45558;-86
2022/08/10 04:13:08;;;;;;;;;6.00;5.00;;;;;23.37;41.33;101429.44;5024637;28;45520;-82
2022/08/10 04:15:33;;;;;;;;;6.00;5.00;;;;;23.30;41.15;101425.81;5022635;28;45873;-85
2022/08/10 04:17:59;;;;;;;;;5.75;4.75;;;;;23.33;41.49;101432.66;5004996;28;45523;-85
2022/08/10 04:23:50;;;;;;;;;5.00;5.00;;;;;23.27;41.56;101439.50;5014487;28;45665;-85
2022/08/10 04:26:15;;;;;;;;;5.00;4.25;;;;;23.22;40.99;101438.34;5015754;28;45579;-84
2022/08/10 04:28:41;;;;;;;;;5.00;5.00;;;;;23.27;41.63;101446.69;5016109;28;45570;-86
2022/08/10 04:31:08;;;;;;;;;7.75;6.50;;;;;23.20;41.49;101438.56;5015487;28;45621;-85
2022/08/10 04:33:36;;;;;;;;;5.00;5.00;;;;;23.29;41.73;101445.53;5015044;28;46275;-83
2022/08/10 04:36:04;;;;;;;;;5.50;5.00;;;;;23.27;41.47;101444.88;5015040;28;45621;-85
2022/08/10 04:38:32;;;;;;;;;5.00;4.75;;;;;23.21;41.04;101437.53;4998571;28;45853;-86
2022/08/10 04:41:00;;;;;;;;;5.00;5.00;;;;;23.18;41.85;101437.88;5015049;28;46648;-84
2022/08/10 04:43:25;;;;;;;;;4.50;4.25;;;;;23.27;41.16;101452.88;5015476;28;45900;-83
2022/08/10 04:45:51;;;;;;;;;6.00;6.00;;;;;23.27;41.76;101449.38;4996828;28;45567;-82
2022/08/10 04:48:18;;;;;;;;;6.75;6.00;;;;;23.27;41.27;101452.03;5014718;28;45413;-85
2022/08/10 04:54:05;;;;;;;;;7.00;6.50;;;;;23.22;41.69;101457.91;5015114;28;45860;-84
2022/08/10 04:56:31;;;;;;;;;7.25;5.00;;;;;23.20;41.75;101451.91;5016806;28;45662;-82
2022/08/10 04:58:56;;;;;;;;;6.50;6.00;;;;;23.13;41.69;101447.41;5017599;28;45543;-84
2022/08/10 05:01:22;;;;;;;;;6.00;5.75;;;;;23.15;41.54;101448.09;5017584;28;46442;-85
2022/08/10 05:03:47;;;;;;;;;8.00;6.25;;;;;23.21;41.68;101458.91;5001324;28;47898;-86
2022/08/10 05:06:12;;;;;;;;;5.50;5.00;;;;;23.16;41.96;101453.25;5020004;28;45735;-86
2022/08/10 05:08:38;;;;;;;;;3.00;2.50;;;;;23.19;41.94;101460.94;5019875;28;45551;-83
2022/08/10 05:11:03;;;;;;;;;6.00;5.00;;;;;23.09;42.07;101457.63;5000942;28;48284;-83
2022/08/10 05:13:29;;;;;;;;;5.00;5.00;;;;;23.16;41.55;101466.63;5019392;28;45488;-83
2022/08/10 05:15:55;;;;;;;;;5.00;5.00;;;;;23.12;42.26;101459.09;5019278;28;45654;-85
2022/08/10 05:18:21;;;;;;;;;6.00;6.00;;;;;23.07;41.51;101462.28;5020255;28;45571;-85
2022/08/10 05:24:08;;;;;;;;;6.00;5.25;;;;;23.09;42.17;101468.31;5018928;28;45701;-85
2022/08/10 05:26:33;;;;;;;;;8.00;6.75;;;;;23.08;42.54;101465.81;5021337;28;45758;-84
2022/08/10 05:28:58;;;;;;;;;5.00;5.00;;;;;23.05;41.97;101469.63;5024786;28;45782;-84
2022/08/10 05:31:24;;;;;;;;;7.00;7.00;;;;;23.08;41.92;101471.16;5026079;28;45559;-83
2022/08/10 05:33:49;;;;;;;;;6.00;5.75;;;;;23.05;42.53;101480.31;5008814;28;47731;-84
2022/08/10 05:39:38;;;;;;;;;7.25;6.25;;;;;23.01;42.06;101482.50;5024302;28;45527;-86
2022/08/10 05:42:05;;;;;;;;;4.75;4.75;;;;;22.97;42.50;101469.66;5023949;28;45776;-83
2022/08/10 05:44:31;;;;;;;;;6.00;5.25;;;;;22.97;42.00;101470.50;5024684;28;45679;-85
2022/08/10 05:46:57;;;;;;;;;7.75;6.00;;;;;22.98;42.47;101471.34;5025102;28;45636;-82
2022/08/10 05:49:23;;;;;;;;;7.50;6.25;;;;;23.00;42.24;101475.50;5023861;28;45646;-83
2022/08/10 05:51:48;;;;;;;;;6.25;6.00;;;;;22.99;42.75;101465.00;5024477;28;46373;-82
2022/08/10 05:54:14;;;;;;;;;7.00;7.00;;;;;23.00;42.43;101470.16;5025396;28;45392;-81
2022/08/10 05:56:42;;;;;;;;;5.00;5.00;;;;;22.99;42.24;101478.34;5023991;28;45716;-84
2022/08/10 05:59:10;;;;;;;;;5.75;5.75;;;;;22.98;42.55;101466.81;5003987;28;45789;-84
2022/08/10 06:01:40;;;;;;;;;6.00;6.00;;;;;22.95;42.91;101464.47;5020486;28;45884;-87
2022/08/10 06:04:08;;;;;;;;;7.50;6.50;;;;;23.04;42.25;101481.34;5022993;28;45629;-83
2022/08/10 06:09:57;;;;;;;;;5.00;4.00;;;;;22.98;42.55;101460.66;5024335;28;45535;-83
2022/08/10 06:12:26;;;;;;;;;6.00;6.00;;;;;23.06;42.56;101479.31;5025070;28;47063;-85
2022/08/10 06:15:00;;;;;;;;;7.50;6.00;;;;;23.04;42.53;101470.66;5022844;28;45589;-85
2022/08/10 06:17:30;;;;;;;;;7.00;7.00;;;;;23.09;42.64;101480.84;5004042;28;45573;-82
2022/08/10 06:19:57;;;;;;;;;11.50;7.00;;;;;23.09;42.83;101483.53;5022805;28;45496;-82
2022/08/10 06:22:25;;;;;;;;;6.00;6.00;;;;;23.07;42.53;101477.50;5025529;28;45570;-83
2022/08/10 06:24:51;;;;;;;;;5.25;5.25;;;;;23.08;42.80;101472.00;5012090;28;47411;-80
2022/08/10 06:27:17;;;;;;;;;7.00;7.00;;;;;23.06;42.60;101471.31;5026784;28;45600;-80
2022/08/10 06:29:45;;;;;;;;;8.50;7.00;;;;;23.08;42.71;101476.50;5025991;28;45149;-82
2022/08/10 06:32:12;;;;;;;;;7.00;7.00;;;;;23.05;42.25;101471.50;5007386;28;47588;-81
2022/08/10 06:34:42;;;;;;;;;6.75;6.00;;;;;23.08;42.51;101477.34;5021084;28;45974;-81
2022/08/10 06:37:09;;;;;;;;;7.00;6.00;;;;;23.11;42.59;101487.69;5020698;28;45683;-83
2022/08/10 06:39:36;;;;;;;;;7.00;6.50;;;;;23.15;42.44;101485.53;5002297;28;45880;-82
2022/08/10 06:42:28;;;;;;;;;7.25;6.50;;;;;23.05;42.58;101480.31;5018146;28;46531;-82
2022/08/10 06:44:59;;;;;;;;;8.75;7.00;;;;;23.01;42.16;101466.47;4998137;28;47105;-83
2022/08/10 06:47:30;;;;;;;;;6.25;6.00;;;;;23.12;42.63;101492.03;5016198;28;45709;-82
2022/08/10 06:49:59;;;;;;;;;8.00;7.25;;;;;23.14;42.82;101486.53;5016379;28;45517;-81
2022/08/10 06:52:26;;;;;;;;;8.50;7.50;;;;;23.06;42.36;101475.81;5015821;28;46766;-80
2022/08/10 06:54:54;;;;;;;;;9.00;7.50;;;;;23.11;42.28;101476.16;4998000;28;47965;-82
2022/08/10 06:57:25;;;;;;;;;7.25;7.00;;;;;23.14;42.10;101490.03;4999052;28;45616;-83
2022/08/10 06:59:52;;;;;;;;;6.75;6.00;;;;;23.13;42.76;101487.50;5017621;28;45496;-83
2022/08/10 07:02:25;;;;;;;;;7.00;6.50;;;;;23.18;42.82;101496.69;5019335;28;45972;-82
2022/08/10 07:11:36;;;;;;;;;7.00;7.00;;;;;23.21;42.15;101500.91;5025364;28;45710;-80
2022/08/10 07:14:02;;;;;;;;;8.75;7.00;;;;;23.22;42.52;101492.69;5023158;28;46532;-82
2022/08/10 07:16:30;;;;;;;;;7.25;7.25;;;;;23.23;42.71;101493.50;5005624;28;47366;-79
2022/08/10 07:18:57;;;;;;;;;10.00;7.25;;;;;23.17;42.23;101470.13;5000144;28;45587;-81
2022/08/10 07:21:25;;;;;;;;;6.75;6.75;;;;;23.20;42.23;101478.66;5018162;28;45441;-81
2022/08/10 07:23:52;;;;;;;;;7.00;7.00;;;;;23.29;42.51;101485.66;5016516;28;46392;-80
2022/08/10 07:26:19;;;;;;;;;7.50;7.25;;;;;23.28;42.42;101492.00;5014473;28;45436;-80
2022/08/10 07:28:47;;;;;;;;;8.00;7.75;;;;;23.28;42.08;101483.16;5015517;28;45603;-78
2022/08/10 07:31:17;;;;;;;;;10.50;8.50;;;;;23.29;42.26;101466.09;5015455;28;45516;-83
2022/08/10 07:33:43;;;;;;;;;8.00;7.25;;;;;23.35;42.14;101476.94;4997501;28;47277;-83
2022/08/10 07:36:10;;;;;;;;;9.00;9.00;;;;;23.37;42.07;101474.91;5016299;28;46559;-81
2022/08/10 07:38:37;;;;;;;;;8.00;8.00;;;;;23.41;42.26;101473.59;5016020;28;45659;-80
2022/08/10 07:41:04;;;;;;;;;7.25;7.25;;;;;23.47;42.12;101477.47;5014841;28;45619;-84
2022/08/10 07:43:36;;;;;;;;;7.75;7.50;;;;;23.54;42.19;101488.28;5014942;28;46587;-81
2022/08/10 07:46:14;;;;;;;;;10.00;8.25;;;;;23.61;41.90;101495.47;5104721;27;46133;-81
2022/08/10 07:48:46;;;;;;;;;8.25;7.50;;;;;23.55;42.09;101468.56;5088702;27;45747;-82
2022/08/10 07:51:12;;;;;;;;;9.00;8.00;;;;;23.63;41.61;101481.94;5089330;27;45737;-82
2022/08/10 07:53:42;;;;;;;;;7.00;7.00;;;;;23.68;41.74;101483.06;5088386;27;46785;-83
2022/08/10 07:56:09;;;;;;;;;9.00;7.00;;;;;23.69;41.07;101483.91;5088332;27;45964;-80
2022/08/10 07:58:43;;;;;;;;;9.50;8.75;;;;;23.81;41.33;101488.69;5087421;27;46449;-84
2022/08/10 08:01:09;;;;;;;;;8.25;8.00;;;;;23.83;40.90;101489.38;5082008;27;45857;-85
2022/08/10 08:03:35;;;;;;;;;6.50;6.00;;;;;23.90;41.08;101502.91;5080643;27;46088;-81
2022/08/10 08:06:03;;;;;;;;;7.25;7.00;;;;;23.93;41.26;101496.34;5085389;27;45530;-83
2022/08/10 08:08:29;;;;;;;;;8.25;7.75;;;;;24.00;40.62;101497.31;5083634;27;45665;-84
2022/08/10 08:10:57;;;;;;;;;7.75;7.50;;;;;24.03;41.14;101499.63;5083521;27;45915;-82
2022/08/10 08:13:25;;;;;;;;;11.50;9.75;;;;;24.04;40.49;101495.97;5079949;27;47809;-82
2022/08/10 08:15:52;;;;;;;;;8.00;7.25;;;;;24.06;40.71;101492.13;5087888;27;46356;-83
2022/08/10 08:18:21;;;;;;;;;9.75;8.00;;;;;24.17;40.75;101501.59;5088145;27;45723;-83
2022/08/10 08:20:48;;;;;;;;;8.00;8.00;;;;;24.13;40.42;101484.22;5087858;27;45855;-83
2022/08/10 08:23:17;;;;;;;;;8.25;8.00;;;;;24.25;40.36;101486.34;5087881;27;46506;-83
2022/08/10 08:25:44;;;;;;;;;7.00;7.00;;;;;24.24;40.53;101475.78;5086496;27;45744;-83
2022/08/10 08:28:10;;;;;;;;;9.25;9.00;;;;;24.28;39.94;101473.59;5086827;27;45746;-82
2022/08/10 08:30:38;;;;;;;;;11.25;9.00;;;;;24.34;40.42;101471.06;5088320;27;45655;-83
2022/08/10 08:33:05;;;;;;;;;10.75;9.25;;;;;24.42;39.95;101481.72;5087853;27;46698;-83
2022/08/10 08:35:31;;;;;;;;;9.75;9.75;;;;;24.47;39.82;101470.44;5079466;27;48520;-84
2022/08/10 08:37:58;;;;;;;;;10.50;8.00;;;;;24.55;39.31;101473.94;5096919;27;45633;-83
2022/08/10 08:40:34;;;;;;;;;8.75;8.50;;;;;24.60;39.80;101476.06;5098277;27;45928;-84
2022/08/10 08:43:27;;;;;;;;;10.50;9.75;;;;;24.66;39.41;101473.50;5089078;27;45766;-83
2022/08/10 08:45:55;;;;;;;;;9.00;9.00;;;;;24.73;39.17;101472.75;5088009;27;48100;-79
2022/08/10 08:48:42;;;;;;;;;9.25;9.25;;;;;24.72;39.28;101469.28;5084423;27;45790;-79
2022/08/10 08:51:10;;;;;;;;;10.25;9.50;;;;;24.80;38.95;101473.72;5088393;27;45651;-79
2022/08/10 08:53:50;;;;;;;;;9.50;8.00;;;;;24.88;39.14;101476.38;5090948;27;46887;-78
2022/08/10 08:56:33;;;;;;;;;9.00;8.00;;;;;24.93;38.95;101473.97;5082214;27;46051;-78
2022/08/10 08:59:17;;;;;;;;;10.00;10.00;;;;;25.01;39.03;101465.84;5074408;27;45680;-77
2022/08/10 09:01:55;;;;;;;;;10.00;10.00;;;;;25.06;38.78;101469.66;5069979;27;45722;-77
2022/08/10 09:04:57;;;;;;;;;8.25;8.00;;;;;25.13;38.46;101472.44;5074289;28;46543;-78
2022/08/10 09:08:04;;;;;;;;;9.50;9.00;;;;;25.20;38.19;101465.34;5073906;27;46682;-78
2022/08/10 09:10:53;;;;;;;;;8.50;8.25;;;;;25.28;37.62;101462.56;5081141;27;45667;-80
2022/08/10 09:13:38;;;;;;;;;10.00;10.00;;;;;25.34;37.69;101459.13;5074203;27;45931;-80
2022/08/10 09:16:28;;;;;;;;;10.00;9.25;;;;;25.38;37.03;101463.09;5073862;28;46523;-80
2022/08/10 09:19:16;;;;;;;;;9.00;9.00;;;;;25.49;37.42;101457.28;5070364;28;46253;-79
2022/08/10 09:21:56;;;;;;;;;11.50;10.50;;;;;25.57;37.48;101455.56;5072804;28;45707;-80
2022/08/10 09:24:34;;;;;;;;;9.25;8.00;;;;;25.62;36.87;101451.31;5074364;27;45706;-80
2022/08/10 09:27:07;;;;;;;;;8.75;8.25;;;;;25.72;36.44;101457.22;5071442;27;46518;-80
2022/08/10 09:29:41;;;;;;;;;10.50;10.00;;;;;25.71;36.20;101436.75;5072777;27;45971;-81
2022/08/10 09:32:09;;;;;;;;;9.75;9.50;;;;;25.79;36.31;101438.50;5068250;27;45665;-79
2022/08/10 09:34:53;;;;;;;;;9.50;9.50;;;;;25.97;36.26;101454.19;5060700;28;45739;-81
2022/08/10 09:37:33;;;;;;;;;11.75;11.00;;;;;26.03;35.93;101454.28;5062554;28;45731;-79
2022/08/10 09:40:10;;;;;;;;;9.75;9.75;;;;;26.10;35.61;101439.06;5072415;27;46480;-80
2022/08/10 09:42:39;;;;;;;;;9.00;9.00;;;;;26.17;35.53;101441.84;5073547;28;45683;-77
2022/08/10 09:45:12;;;;;;;;;9.00;9.00;;;;;26.19;35.33;101443.28;5074532;27;46082;-80
2022/08/10 09:48:12;;;;;;;;;9.75;8.75;;;;;26.31;35.30;101440.97;5067930;27;45698;-79
2022/08/10 09:50:53;;;;;;;;;9.25;8.75;;;;;26.40;35.07;101447.88;5073125;27;46305;-80
2022/08/10 09:53:37;;;;;;;;;9.25;8.50;;;;;26.48;35.59;101438.88;5069221;28;45721;-79
2022/08/10 09:56:27;;;;;;;;;11.75;11.00;;;;;26.56;35.35;101439.56;5070407;28;45765;-77
2022/08/10 09:59:13;;;;;;;;;11.00;11.00;;;;;26.65;34.33;101435.72;5061526;28;45659;-82
2022/08/10 10:01:44;;;;;;;;;10.25;10.25;;;;;26.73;33.86;101438.25;5069234;28;47735;-83
2022/08/10 10:04:40;;;;;;;;;9.25;8.75;;;;;26.83;34.75;101431.72;5070324;28;46272;-81
2022/08/10 10:07:09;;;;;;;;;10.25;9.25;;;;;26.87;34.26;101425.78;5055026;28;45865;-82
2022/08/10 10:09:55;;;;;;;;;11.00;10.00;;;;;26.96;34.24;101421.09;5066581;27;45736;-82
2022/08/10 10:12:46;;;;;;;;;9.25;9.00;;;;;27.03;33.31;101413.91;5071493;28;46335;-81
2022/08/10 10:15:27;;;;;;;;;10.50;10.00;;;;;27.10;33.46;101420.13;5073350;27;45761;-81
2022/08/10 10:18:11;;;;;;;;;9.25;9.25;;;;;27.17;33.85;101409.41;5073441;28;45697;-83
2022/08/10 10:21:00;;;;;;;;;8.25;7.75;;;;;27.23;33.44;101414.84;5070720;28;45636;-80
2022/08/10 10:23:34;;;;;;;;;10.25;9.00;;;;;27.31;32.99;101398.56;5071473;28;47514;-81
2022/08/10 10:26:20;;;;;;;;;11.00;10.00;;;;;27.40;33.26;101405.41;5070798;27;45743;-78
2022/08/10 10:28:49;;;;;;;;;10.25;10.00;;;;;27.48;33.28;101397.16;5074092;28;45847;-77
2022/08/10 10:31:29;;;;;;;;;10.75;10.25;;;;;27.54;33.12;101393.69;5080995;27;47312;-76
2022/08/10 10:34:09;;;;;;;;;10.00;10.00;;;;;27.63;33.09;101398.94;5064673;28;46176;-78
2022/08/10 10:36:38;;;;;;;;;10.50;10.00;;;;;27.67;33.13;101386.72;5071322;28;45636;-81
2022/08/10 10:39:06;;;;;;;;;9.75;9.25;;;;;27.76;32.57;101388.19;5074413;27;46043;-80
2022/08/10 10:41:38;;;;;;;;;10.25;10.00;;;;;27.85;31.96;101397.75;5073654;28;46461;-77
2022/08/10 10:44:28;;;;;;;;;8.75;8.75;;;;;27.92;31.86;101396.72;5063122;27;45951;-80
2022/08/10 10:47:41;;;;;;;;;9.25;8.75;;;;;27.99;31.70;101388.66;5062691;28;45602;-80
2022/08/10 10:50:26;;;;;;;;;10.00;10.00;;;;;28.06;30.97;101386.81;5067706;28;45718;-80
2022/08/10 10:53:11;;;;;;;;;10.00;9.00;;;;;28.13;30.61;101382.28;5079043;28;45561;-79
2022/08/10 10:55:50;;;;;;;;;9.75;9.75;;;;;28.12;30.58;101363.63;5077667;27;45978;-77
2022/08/10 10:58:24;;;;;;;;;10.25;9.75;;;;;28.25;30.56;101371.72;5074150;27;45779;-77
2022/08/10 11:00:54;;;;;;;;;9.00;8.75;;;;;28.28;30.42;101379.44;5068242;27;45722;-80
2022/08/10 11:03:44;;;;;;;;;12.25;11.00;;;;;28.37;30.54;101373.63;5073414;27;45865;-78
2022/08/10 11:06:28;;;;;;;;;8.75;8.50;;;;;28.46;30.35;101363.44;5057689;28;46693;-77
2022/08/10 11:08:59;;;;;;;;;8.75;8.00;;;;;28.57;29.43;101362.00;5071827;28;45743;-79
2022/08/10 11:11:32;;;;;;;;;9.25;8.75;;;;;28.65;29.23;101362.63;5081934;27;46007;-80
2022/08/10 11:14:25;;;;;;;;;8.00;8.00;;;;;28.74;28.86;101352.47;5074738;27;45735;-80
2022/08/10 11:16:57;;;;;;;;;9.75;8.50;;;;;28.85;28.14;101359.09;5075247;27;45928;-78
2022/08/10 11:19:46;;;;;;;;;8.50;8.00;;;;;28.91;28.37;101353.69;5067105;28;45647;-80
2022/08/10 11:22:21;;;;;;;;;8.00;8.00;;;;;28.95;28.08;101352.22;5064892;28;45665;-79
2022/08/10 11:25:00;;;;;;;;;9.00;9.00;;;;;29.01;26.51;101347.84;5076425;27;45904;-80
2022/08/10 11:27:31;;;;;;;;;8.50;8.50;;;;;29.03;27.21;101356.56;5071250;28;45982;-80
2022/08/10 11:30:06;;;;;;;;;8.75;8.75;;;;;29.10;26.98;101343.84;5074318;28;45951;-78
2022/08/10 11:32:41;;;;;;;;;8.00;8.00;;;;;29.17;27.43;101339.28;5073338;27;45632;-79
2022/08/10 11:35:39;;;;;;;;;8.50;8.50;;;;;29.27;27.01;101341.50;5066733;27;46504;-82
2022/08/10 11:38:05;;;;;;;;;9.50;9.50;;;;;29.31;26.27;101331.97;5075379;28;46331;-80
2022/08/10 11:40:42;;;;;;;;;9.00;8.00;;;;;29.31;25.88;101315.78;5082635;27;45662;-81
2022/08/10 11:43:21;;;;;;;;;8.50;8.50;;;;;29.39;26.41;101337.16;5074500;27;45591;-81
2022/08/10 11:45:53;;;;;;;;;9.00;8.75;;;;;29.46;26.62;101327.97;5075387;27;45655;-79
2022/08/10 11:48:25;;;;;;;;;9.00;8.75;;;;;29.53;26.30;101333.31;5069612;27;45977;-83
2022/08/10 11:50:58;;;;;;;;;9.75;9.00;;;;;29.57;26.68;101330.00;5072981;28;45618;-80
2022/08/10 11:53:47;;;;;;;;;8.00;8.00;;;;;29.61;26.43;101327.69;5063843;28;45776;-80
2022/08/10 11:56:26;;;;;;;;;8.50;8.25;;;;;29.68;26.52;101320.38;5073803;28;45876;-78
2022/08/10 12:01:41;;;;;;;;;7.00;6.50;;;;;29.80;25.92;101325.94;5075903;28;45698;-83
2022/08/10 12:04:08;;;;;;;;;7.25;7.00;;;;;29.83;26.16;101325.47;5076777;27;45849;-80
2022/08/10 12:06:36;;;;;;;;;8.00;8.00;;;;;29.92;25.87;101326.91;5075492;27;46589;-83
2022/08/10 12:09:06;;;;;;;;;7.50;7.50;;;;;29.92;25.67;101311.50;5069220;28;47339;-83
2022/08/10 12:11:33;;;;;;;;;8.00;8.00;;;;;30.01;25.16;101322.91;5075546;28;45715;-82
2022/08/10 12:14:14;;;;;;;;;8.00;8.00;;;;;30.05;24.87;101313.28;5075064;27;45612;-80
2022/08/10 12:16:46;;;;;;;;;8.25;8.00;;;;;30.07;25.17;101303.06;5076304;28;46537;-82
2022/08/10 12:19:36;;;;;;;;;8.25;8.25;;;;;30.05;24.95;101294.38;5077423;27;46440;-79
2022/08/10 12:22:09;;;;;;;;;7.75;7.50;;;;;30.06;25.06;101289.78;5075713;27;45649;-81
2022/08/10 12:24:37;;;;;;;;;10.00;9.25;;;;;30.17;24.74;101306.13;5074933;28;45708;-78
2022/08/10 12:27:22;;;;;;;;;9.00;9.00;;;;;30.18;24.22;101301.53;5066882;27;46025;-80
2022/08/10 12:29:54;;;;;;;;;9.00;9.00;;;;;30.21;24.82;101296.53;5074145;28;45759;-78
2022/08/10 12:32:38;;;;;;;;;9.00;9.00;;;;;30.26;24.86;101298.56;5075427;27;45498;-79
2022/08/10 12:35:14;;;;;;;;;10.75;10.25;;;;;30.28;24.33;101285.66;5061016;28;45728;-79
2022/08/10 12:37:46;;;;;;;;;8.00;8.00;;;;;30.32;24.48;101297.69;5076597;27;47374;-78